sensor_id;sensor_type;location;lat;lon;timestamp;pressure;altitude;pressure_sealevel;temperature;humidity
52797;BME280;38666;43.348;12.584;2023-05-19T06:52:50;95748.75;;;14.46;76.87
52797;BME280;38666;43.348;12.584;2023-05-19T06:55:16;95744.84;;;14.64;75.52
52797;BME280;38666;43.348;12.584;2023-05-19T06:57:41;95741.44;;;14.76;73.91
52797;BME280;38666;43.348;12.584;2023-05-19T07:00:07;95743.94;;;14.71;72.17
52797;BME280;38666;43.348;12.584;2023-05-19T07:02:36;95744.44;;;14.86;70.03
52797;BME280;38666;43.348;12.584;2023-05-19T07:05:01;95746.16;;;14.96;69.49
52797;BME280;38666;43.348;12.584;2023-05-19T07:07:27;95749.81;;;15.10;65.75
52797;BME280;38666;43.348;12.584;2023-05-19T07:09:52;95750.81;;;15.16;66.02
52797;BME280;38666;43.348;12.584;2023-05-19T07:12:18;95761.97;;;14.92;65.42
52797;BME280;38666;43.348;12.584;2023-05-19T07:14:44;95767.06;;;14.94;65.61
52797;BME280;38666;43.348;12.584;2023-05-19T07:17:09;95758.59;;;14.84;67.39
52797;BME280;38666;43.348;12.584;2023-05-19T07:19:35;95765.94;;;15.24;67.63
52797;BME280;38666;43.348;12.584;2023-05-19T07:22:00;95754.28;;;15.20;65.00
52797;BME280;38666;43.348;12.584;2023-05-19T07:24:25;95747.31;;;15.32;65.12
52797;BME280;38666;43.348;12.584;2023-05-19T07:26:51;95755.75;;;15.42;65.73
52797;BME280;38666;43.348;12.584;2023-05-19T07:29:17;95762.00;;;15.59;65.20
52797;BME280;38666;43.348;12.584;2023-05-19T07:31:42;95763.03;;;15.32;66.46
52797;BME280;38666;43.348;12.584;2023-05-19T07:34:08;95768.38;;;15.39;66.11
52797;BME280;38666;43.348;12.584;2023-05-19T07:36:33;95775.44;;;15.40;63.24
52797;BME280;38666;43.348;12.584;2023-05-19T07:38:59;95768.28;;;15.43;67.24
52797;BME280;38666;43.348;12.584;2023-05-19T07:41:24;95777.41;;;15.56;65.65
52797;BME280;38666;43.348;12.584;2023-05-19T07:43:50;95771.03;;;15.59;66.00
52797;BME280;38666;43.348;12.584;2023-05-19T07:46:15;95776.81;;;15.65;64.70
52797;BME280;38666;43.348;12.584;2023-05-19T07:48:41;95771.81;;;15.60;65.49
52797;BME280;38666;43.348;12.584;2023-05-19T07:51:06;95768.56;;;15.65;63.87
52797;BME280;38666;43.348;12.584;2023-05-19T07:53:35;95768.34;;;15.72;64.39
52797;BME280;38666;43.348;12.584;2023-05-19T07:56:01;95765.56;;;15.89;63.94
52797;BME280;38666;43.348;12.584;2023-05-19T07:58:26;95766.94;;;15.97;64.19
52797;BME280;38666;43.348;12.584;2023-05-19T08:00:52;95774.53;;;15.93;64.89
52797;BME280;38666;43.348;12.584;2023-05-19T08:03:17;95772.66;;;15.90;63.21
52797;BME280;38666;43.348;12.584;2023-05-19T08:05:43;95767.47;;;16.09;63.10
52797;BME280;38666;43.348;12.584;2023-05-19T08:08:09;95767.81;;;15.94;62.54
52797;BME280;38666;43.348;12.584;2023-05-19T08:10:35;95760.75;;;15.93;64.93
52797;BME280;38666;43.348;12.584;2023-05-19T08:13:01;95759.88;;;15.96;64.12
52797;BME280;38666;43.348;12.584;2023-05-19T08:15:26;95763.81;;;16.12;64.02
52797;BME280;38666;43.348;12.584;2023-05-19T08:17:52;95757.88;;;16.13;64.91
52797;BME280;38666;43.348;12.584;2023-05-19T08:20:18;95757.53;;;15.65;65.97
52797;BME280;38666;43.348;12.584;2023-05-19T08:22:43;95775.50;;;15.53;66.95
52797;BME280;38666;43.348;12.584;2023-05-19T08:25:08;95770.09;;;15.66;69.92
52797;BME280;38666;43.348;12.584;2023-05-19T08:27:34;95779.88;;;15.84;68.85
52797;BME280;38666;43.348;12.584;2023-05-19T08:30:00;95780.91;;;15.90;67.35
52797;BME280;38666;43.348;12.584;2023-05-19T08:32:25;95773.06;;;16.05;67.52
52797;BME280;38666;43.348;12.584;2023-05-19T08:34:51;95781.91;;;16.13;69.31
52797;BME280;38666;43.348;12.584;2023-05-19T08:37:16;95774.78;;;15.99;69.23
52797;BME280;38666;43.348;12.584;2023-05-19T08:39:42;95774.19;;;15.74;68.47
52797;BME280;38666;43.348;12.584;2023-05-19T08:42:07;95772.81;;;15.83;68.01
52797;BME280;38666;43.348;12.584;2023-05-19T08:44:34;95781.53;;;15.81;68.50
52797;BME280;38666;43.348;12.584;2023-05-19T08:47:02;95780.56;;;15.88;67.39
52797;BME280;38666;43.348;12.584;2023-05-19T08:49:32;95784.66;;;15.96;68.34
52797;BME280;38666;43.348;12.584;2023-05-19T08:52:21;95785.00;;;15.98;66.76
52797;BME280;38666;43.348;12.584;2023-05-19T08:54:53;95784.19;;;15.68;68.04
52797;BME280;38666;43.348;12.584;2023-05-19T08:57:21;95789.19;;;15.73;67.26
52797;BME280;38666;43.348;12.584;2023-05-19T08:59:50;95787.81;;;15.65;66.94
52797;BME280;38666;43.348;12.584;2023-05-19T09:02:17;95777.13;;;16.00;67.39
52797;BME280;38666;43.348;12.584;2023-05-19T09:04:42;95783.78;;;16.16;66.64
52797;BME280;38666;43.348;12.584;2023-05-19T09:07:12;95788.06;;;16.04;66.92
52797;BME280;38666;43.348;12.584;2023-05-19T09:09:38;95785.25;;;16.51;65.72
52797;BME280;38666;43.348;12.584;2023-05-19T09:12:10;95783.97;;;16.94;63.54
52797;BME280;38666;43.348;12.584;2023-05-19T09:14:36;95784.13;;;17.17;64.13
52797;BME280;38666;43.348;12.584;2023-05-19T09:17:03;95778.09;;;16.66;61.34
52797;BME280;38666;43.348;12.584;2023-05-19T09:19:28;95782.13;;;16.19;63.60
52797;BME280;38666;43.348;12.584;2023-05-19T09:22:01;95776.59;;;15.89;65.82
52797;BME280;38666;43.348;12.584;2023-05-19T09:24:30;95779.72;;;15.41;67.48
52797;BME280;38666;43.348;12.584;2023-05-19T09:26:56;95769.78;;;15.94;66.56
52797;BME280;38666;43.348;12.584;2023-05-19T09:29:21;95759.72;;;16.04;64.94
52797;BME280;38666;43.348;12.584;2023-05-19T09:31:54;95761.09;;;15.95;67.01
52797;BME280;38666;43.348;12.584;2023-05-19T09:34:24;95760.94;;;15.86;66.39
52797;BME280;38666;43.348;12.584;2023-05-19T09:36:52;95762.28;;;15.94;65.23
52797;BME280;38666;43.348;12.584;2023-05-19T09:39:19;95769.53;;;15.88;67.12
52797;BME280;38666;43.348;12.584;2023-05-19T09:41:45;95762.31;;;16.24;65.42
52797;BME280;38666;43.348;12.584;2023-05-19T09:46:52;95768.47;;;16.58;63.65
52797;BME280;38666;43.348;12.584;2023-05-19T09:49:28;95767.41;;;16.68;63.52
52797;BME280;38666;43.348;12.584;2023-05-19T09:51:55;95764.56;;;16.85;66.13
52797;BME280;38666;43.348;12.584;2023-05-19T09:54:21;95763.91;;;17.07;63.77
52797;BME280;38666;43.348;12.584;2023-05-19T09:56:57;95757.66;;;17.19;63.12
52797;BME280;38666;43.348;12.584;2023-05-19T09:59:23;95771.72;;;16.95;64.04
52797;BME280;38666;43.348;12.584;2023-05-19T10:01:55;95763.44;;;16.69;62.38
52797;BME280;38666;43.348;12.584;2023-05-19T10:04:22;95765.66;;;16.32;64.96
52797;BME280;38666;43.348;12.584;2023-05-19T10:06:53;95765.91;;;16.08;64.82
52797;BME280;38666;43.348;12.584;2023-05-19T10:09:23;95766.59;;;16.12;67.91
52797;BME280;38666;43.348;12.584;2023-05-19T10:11:53;95762.50;;;16.46;63.51
